AirNav   Pilot Hours Calculator
 
 1645 users online  

AZ50 Triangle Airpark
White Hills, Arizona, USA

GOING TO WHITE HILLS?


FAA INFORMATION EFFECTIVE 20 MAY 2021

Location

FAA Identifier: AZ50
Lat/Long: 35-42-59.0000N 114-28-48.0000W
35-42.983333N 114-28.800000W
35.7163889,-114.4800000
(estimated)
Elevation: 2460 ft. / 750 m (estimated)
Variation: 14E (1985)
From city: 5 miles SW of WHITE HILLS, AZ
Time zone: UTC -7 (year round; does not observe DST)
Zip code: 86441

Airport Operations

Airport use: Private use. Permission required prior to landing
Activation date: 07/1982
Control tower: no
ARTCC: LOS ANGELES CENTER
FSS: PRESCOTT FLIGHT SERVICE STATION
Attendance: CONTINUOUS
Wind indicator: yes
Segmented circle: no

Nearby radio navigation aids

VOR radial/distance  VOR name  Freq  Var
BLDr117/25.1BOULDER CITY VORTAC116.7015E
IGMr301/38.2KINGMAN VOR/DME108.8015E
LASr108/39.6LAS VEGAS VORTAC116.9015E

Airport Services

Runway Information

Runway 17/35

Dimensions: 3900 x 50 ft. / 1189 x 15 m
Surface: asphalt
Runway edge markings: RYS 17 & 35 THLDS MARKED WITH ORANGE CONES.
RUNWAY 17  RUNWAY 35
Traffic pattern: leftleft
Obstructions: nonepline

Runway 8/26

Dimensions: 1844 x 50 ft. / 562 x 15 m
Surface: dirt
Runway edge markings: RYS 08 & 26 THLDS MARKED WITH ORANGE CONES.
RUNWAY 8  RUNWAY 26
Traffic pattern: leftleft
Obstructions: nonepline

Airport Ownership and Management from official FAA records

Ownership: Privately-owned
Owner: BOULDER CITY AERO CLUB INC.
20496 N. MOONEY
WHITE HILLS, AZ 86445
Phone 702-202-9851
Manager: WALT STOUT
20496 N. MOONEY
WHITE HILLS, AZ 86445
Phone 702-202-9851

Airport Operational Statistics

Aircraft based on the field: 17
Single engine airplanes: 10
Multi engine airplanes: 3
Gliders airplanes: 3
Ultralights: 1
    

Additional Remarks

FOR CD CTC LOS ANGELES ARTCC AT 661-575-2079.

Instrument Procedures

There are no published instrument procedures at AZ50.

Some nearby airports with instrument procedures:

KBVU - Boulder City Municipal Airport (23 nm NW)
KIFP - Laughlin/Bullhead International Airport (34 nm S)
KHND - Henderson Executive Airport (35 nm NW)
KIGM - Kingman Airport (38 nm SE)
KLAS - Mc Carran International Airport (39 nm NW)
 
Loc | Ops | Rwys | IFR | FBO | Links
Com | Nav | Svcs | Stats | Notes
Area around AZ50 (Triangle Airpark)
 
Road maps at: MapQuest Bing Google
 
Aerial photo
WARNING: Photo may not be current or correct
Aerial photo of AZ50 (Triangle Airpark)
Do you have a better or more recent aerial photo of Triangle Airpark that you would like to share? If so, please send us your photo.

 
Sectional chart

 
Airport distance calculator
Flying to Triangle Airpark? Find the distance to fly.

From to AZ50

Sunrise and sunset
Times for 16-Jun-2021
 Local
(UTC-7)
 Zulu
(UTC)
Morning civil twilight04:5211:52
Sunrise05:2212:22
Sunset19:5502:55
Evening civil twilight20:2503:25

Current date and time
Zulu (UTC)  16-Jun-2021 18:40:19
Local (UTC-7)  16-Jun-2021 11:40:19
 
METAR
KBVU 
23nm NW 
161815Z AUTO 06005KT 10SM CLR 41/M03 A2991 RMK AO2
KHND 
36nm NW 
161756Z 06005KT 10SM CLR 41/M01 A2996 RMK AO2 SLP121 T04061006 10406 20283 58003
KIFP 
38nm S 
161752Z 00000KT 10SM SCT140 42/M01 A2979
KIGM 
39nm SE 
161751Z AUTO 24011G15KT 10SM CLR 41/M02 A3003 RMK AO2 SLP084 T04111017 10411 20256 58001
KLAS 
39nm NW 
161756Z 05006KT 10SM FEW200 BKN250 40/M03 A2992 RMK AO2 SLP097 T04001033 10406 20300 58001
KLSV 
40nm NW 
161758Z 00000KT 10SM FEW210 SCT240 41/M04 A2988 RMK AO2A SLPNO T04111036 10411 20254 58007 $
KVGT 
45nm NW 
161753Z 00000KT 10SM CLR 40/M04 A2988 RMK AO2 SLP099 T04001039 10406 20289 58001
TAF
KHND 
36nm NW 
161720Z 1618/1718 04006KT P6SM FEW200 BKN250 FM162000 15010KT P6SM FEW200 BKN250 FM170500 20010KT P6SM FEW200 BKN250 FM171500 VRB05KT P6SM SCT180 BKN250
KIFP 
38nm S 
161720Z 1618/1718 19013KT P6SM SCT250 FM170400 16007KT P6SM SCT250 FM171100 VRB05KT P6SM FEW200 BKN250
KLAS 
39nm NW 
161720Z 1618/1724 08007KT P6SM FEW200 BKN250 FM162000 16008KT P6SM FEW200 BKN250 FM170400 21009KT P6SM FEW200 BKN250 FM171000 VRB06KT P6SM FEW200 BKN250 FM171800 07007KT P6SM SCT180 BKN250
KLSV 
40nm NW 
161500Z 1615/1721 VRB06KT 9999 BKN200 QNH2989INS BECMG 1617/1618 12012KT 9999 FEW210 SCT240 QNH2990INS BECMG 1620/1621 15012G18KT 9999 SCT180 BKN220 QNH2992INS BECMG 1703/1704 03008KT 9999 BKN240 QNH2982INS BECMG 1705/1706 VRB06KT 9999 SCT240 QNH2986INS TX46/1622Z TN25/1712Z
NOTAMs
Click for the latest NOTAMs
NOTAMs are issued by the DoD/FAA and will open in a separate window not controlled by AirNav.

 

 
 

Would you like to see your business listed on this page?

 If your business provides an interesting product or service to pilots, flight crews, aircraft, or users of the Triangle Airpark, you should consider listing it here.  To start the listing process, click on the button below
 
Add a business
 

Other Pages about Triangle Airpark

Update a link
 
Copyright © AirNav, LLC. All rights reserved. Privacy Policy  Contact